Time,TemperatureF,DewpointF,PressureIn,WindDirection,WindDirectionDegrees,WindSpeedMPH,WindSpeedGustMPH,Humidity,HourlyPrecipIn,Conditions,Clouds,dailyrainin,SoftwareType,DateUTC
2013-11-29 00:00:00,43.0,39.0,-100.00,South,183,2.0,-999.0,84,0.00,,,-99.99,,2013-11-29 08:00:00,
2013-11-29 00:42:00,43.0,39.0,-100.00,South,183,2.0,-999.0,84,0.00,,,-99.99,,2013-11-29 08:42:00,
2013-11-29 00:53:00,43.0,39.0,-100.00,South,183,2.0,-999.0,84,0.00,,,-99.99,,2013-11-29 08:53:00,
2013-11-29 01:00:00,40.0,38.0,-100.00,SSE,166,5.0,-999.0,90,0.00,,,-99.99,,2013-11-29 09:00:00,
2013-11-29 01:43:00,40.0,38.0,-100.00,SSE,166,5.0,-999.0,90,0.00,,,-99.99,,2013-11-29 09:43:00,
2013-11-29 01:52:00,40.0,38.0,-100.00,SSE,166,5.0,-999.0,90,0.00,,,-99.99,,2013-11-29 09:52:00,
2013-11-29 02:00:00,41.0,38.0,-100.00,SSE,148,4.0,-999.0,86,0.00,,,-99.99,,2013-11-29 10:00:00,
2013-11-29 02:42:00,41.0,38.0,-100.00,SSE,148,4.0,-999.0,86,0.00,,,-99.99,,2013-11-29 10:42:00,
2013-11-29 02:52:00,41.0,38.0,-100.00,SSE,148,4.0,-999.0,86,0.00,,,-99.99,,2013-11-29 10:52:00,
2013-11-29 03:00:00,39.0,37.0,-100.00,South,177,4.0,-999.0,92,0.00,,,-99.99,,2013-11-29 11:00:00,
2013-11-29 03:42:00,39.0,37.0,-100.00,South,177,4.0,-999.0,92,0.00,,,-99.99,,2013-11-29 11:42:00,
2013-11-29 03:52:00,39.0,37.0,-100.00,South,177,4.0,-999.0,92,0.00,,,-99.99,,2013-11-29 11:52:00,
2013-11-29 04:00:00,39.0,36.0,-100.00,SSE,168,4.0,-999.0,90,0.00,,,-99.99,,2013-11-29 12:00:00,
2013-11-29 04:42:00,39.0,36.0,-100.00,SSE,168,4.0,-999.0,90,0.00,,,-99.99,,2013-11-29 12:42:00,
2013-11-29 04:52:00,39.0,36.0,-100.00,SSE,168,4.0,-999.0,90,0.00,,,-99.99,,2013-11-29 12:52:00,
2013-11-29 05:00:00,40.0,37.0,-100.00,SSE,148,2.0,-999.0,89,0.00,,,-99.99,,2013-11-29 13:00:00,
2013-11-29 05:42:00,40.0,37.0,-100.00,SSE,148,2.0,-999.0,89,0.00,,,-99.99,,2013-11-29 13:42:00,
2013-11-29 05:52:00,40.0,37.0,-100.00,SSE,148,2.0,-999.0,89,0.00,,,-99.99,,2013-11-29 13:52:00,
2013-11-29 06:00:00,38.0,36.0,-100.00,South,174,5.0,-999.0,93,0.00,,,-99.99,,2013-11-29 14:00:00,
2013-11-29 06:52:00,38.0,36.0,-100.00,South,174,5.0,-999.0,93,0.00,,,-99.99,,2013-11-29 14:52:00,
2013-11-29 07:00:00,37.0,35.0,-100.00,SSE,161,3.0,-999.0,90,0.00,,,-99.99,,2013-11-29 15:00:00,
2013-11-29 07:43:00,37.0,35.0,-100.00,SSE,161,3.0,-999.0,90,0.00,,,-99.99,,2013-11-29 15:43:00,
2013-11-29 07:53:00,37.0,35.0,-100.00,SSE,161,3.0,-999.0,90,0.00,,,-99.99,,2013-11-29 15:53:00,
2013-11-29 08:00:00,38.0,36.0,-100.00,SE,136,2.0,-999.0,93,0.00,,,-99.99,,2013-11-29 16:00:00,
2013-11-29 08:43:00,38.0,36.0,-100.00,SE,136,2.0,-999.0,93,0.00,,,-99.99,,2013-11-29 16:43:00,
2013-11-29 08:53:00,38.0,36.0,-100.00,SE,136,2.0,-999.0,93,0.00,,,-99.99,,2013-11-29 16:53:00,
2013-11-29 09:00:00,40.0,37.0,-100.00,SSE,155,3.0,-999.0,88,0.00,,,-99.99,,2013-11-29 17:00:00,
2013-11-29 09:43:00,40.0,37.0,-100.00,SSE,155,3.0,-999.0,88,0.00,,,-99.99,,2013-11-29 17:43:00,
2013-11-29 09:52:00,40.0,37.0,-100.00,SSE,155,3.0,-999.0,88,0.00,,,-99.99,,2013-11-29 17:52:00,
2013-11-29 10:00:00,45.0,39.0,-100.00,SSE,161,3.0,-999.0,77,0.00,,,-99.99,,2013-11-29 18:00:00,
2013-11-29 10:42:00,45.0,39.0,-100.00,SSE,161,3.0,-999.0,77,0.00,,,-99.99,,2013-11-29 18:42:00,
2013-11-29 10:52:00,45.0,39.0,-100.00,SSE,161,3.0,-999.0,77,0.00,,,-99.99,,2013-11-29 18:52:00,
2013-11-29 11:00:00,54.0,40.0,-100.00,South,182,3.0,-999.0,60,0.00,,,-99.99,,2013-11-29 19:00:00,
2013-11-29 11:42:00,54.0,40.0,-100.00,South,182,3.0,-999.0,60,0.00,,,-99.99,,2013-11-29 19:42:00,
2013-11-29 11:52:00,54.0,40.0,-100.00,South,182,3.0,-999.0,60,0.00,,,-99.99,,2013-11-29 19:52:00,
2013-11-29 12:00:00,61.0,41.0,-100.00,South,177,4.0,-999.0,48,0.00,,,-99.99,,2013-11-29 20:00:00,
2013-11-29 12:42:00,61.0,41.0,-100.00,South,177,4.0,-999.0,48,0.00,,,-99.99,,2013-11-29 20:42:00,
2013-11-29 12:52:00,61.0,41.0,-100.00,South,177,4.0,-999.0,48,0.00,,,-99.99,,2013-11-29 20:52:00,
2013-11-29 13:00:00,63.0,40.0,-100.00,NNW,341,2.0,-999.0,42,0.00,,,-99.99,,2013-11-29 21:00:00,
2013-11-29 13:43:00,63.0,40.0,-100.00,NNW,341,2.0,-999.0,42,0.00,,,-99.99,,2013-11-29 21:43:00,
2013-11-29 13:53:00,63.0,40.0,-100.00,NNW,341,2.0,-999.0,42,0.00,,,-99.99,,2013-11-29 21:53:00,
2013-11-29 14:00:00,68.0,43.0,-100.00,NW,319,1.0,-999.0,40,0.00,,,-99.99,,2013-11-29 22:00:00,
2013-11-29 14:42:00,68.0,43.0,-100.00,NW,319,1.0,-999.0,40,0.00,,,-99.99,,2013-11-29 22:42:00,
2013-11-29 14:53:00,68.0,43.0,-100.00,NW,319,1.0,-999.0,40,0.00,,,-99.99,,2013-11-29 22:53:00,
2013-11-29 15:00:00,65.0,43.0,-100.00,WNW,284,4.0,-999.0,44,0.00,,,-99.99,,2013-11-29 23:00:00,
2013-11-29 15:42:00,65.0,43.0,-100.00,WNW,284,4.0,-999.0,44,0.00,,,-99.99,,2013-11-29 23:42:00,
2013-11-29 15:52:00,65.0,43.0,-100.00,WNW,284,4.0,-999.0,44,0.00,,,-99.99,,2013-11-29 23:52:00,
2013-11-29 16:00:00,65.0,41.0,-100.00,South,186,1.0,-999.0,42,0.00,,,-99.99,,2013-11-30 00:00:00,
2013-11-29 16:42:00,65.0,41.0,-100.00,South,186,1.0,-999.0,42,0.00,,,-99.99,,2013-11-30 00:42:00,
2013-11-29 16:52:00,65.0,41.0,-100.00,South,186,1.0,-999.0,42,0.00,,,-99.99,,2013-11-30 00:52:00,
2013-11-29 17:00:00,60.0,41.0,-100.00,West,280,0.0,-999.0,50,0.00,,,-99.99,,2013-11-30 01:00:00,
2013-11-29 17:42:00,60.0,41.0,-100.00,West,280,0.0,-999.0,50,0.00,,,-99.99,,2013-11-30 01:42:00,
2013-11-29 17:52:00,60.0,41.0,-100.00,West,280,0.0,-999.0,50,0.00,,,-99.99,,2013-11-30 01:52:00,
2013-11-29 18:00:00,55.0,43.0,-100.00,NNW,345,3.0,-999.0,63,0.00,,,-99.99,,2013-11-30 02:00:00,
2013-11-29 18:42:00,55.0,43.0,-100.00,NNW,345,3.0,-999.0,63,0.00,,,-99.99,,2013-11-30 02:42:00,
2013-11-29 18:52:00,55.0,43.0,-100.00,NNW,345,3.0,-999.0,63,0.00,,,-99.99,,2013-11-30 02:52:00,
2013-11-29 19:00:00,52.0,44.0,-100.00,SE,137,3.0,-999.0,72,0.00,,,-99.99,,2013-11-30 03:00:00,
2013-11-29 19:43:00,52.0,44.0,-100.00,SE,137,3.0,-999.0,72,0.00,,,-99.99,,2013-11-30 03:43:00,
2013-11-29 19:53:00,52.0,44.0,-100.00,SE,137,3.0,-999.0,72,0.00,,,-99.99,,2013-11-30 03:53:00,
2013-11-29 20:00:00,49.0,42.0,-100.00,North,3,2.0,-999.0,77,0.00,,,-99.99,,2013-11-30 04:00:00,
2013-11-29 20:43:00,49.0,42.0,-100.00,North,3,2.0,-999.0,77,0.00,,,-99.99,,2013-11-30 04:43:00,
2013-11-29 20:53:00,49.0,42.0,-100.00,North,3,2.0,-999.0,77,0.00,,,-99.99,,2013-11-30 04:53:00,
2013-11-29 21:00:00,47.0,42.0,-100.00,South,180,3.0,-999.0,81,0.00,,,-99.99,,2013-11-30 05:00:00,
2013-11-29 21:43:00,47.0,42.0,-100.00,South,180,3.0,-999.0,81,0.00,,,-99.99,,2013-11-30 05:43:00,
2013-11-29 21:53:00,47.0,42.0,-100.00,South,180,3.0,-999.0,81,0.00,,,-99.99,,2013-11-30 05:53:00,
2013-11-29 22:00:00,45.0,41.0,-100.00,SSE,168,3.0,-999.0,84,0.00,,,-99.99,,2013-11-30 06:00:00,
2013-11-29 22:42:00,45.0,41.0,-100.00,SSE,168,3.0,-999.0,84,0.00,,,-99.99,,2013-11-30 06:42:00,
2013-11-29 22:52:00,45.0,41.0,-100.00,SSE,168,3.0,-999.0,84,0.00,,,-99.99,,2013-11-30 06:52:00,
2013-11-29 23:00:00,44.0,41.0,-100.00,SSE,166,4.0,-999.0,86,0.00,,,-99.99,,2013-11-30 07:00:00,
2013-11-29 23:42:00,44.0,41.0,-100.00,SSE,166,4.0,-999.0,86,0.00,,,-99.99,,2013-11-30 07:42:00,
2013-11-29 23:52:00,44.0,41.0,-100.00,SSE,166,4.0,-999.0,86,0.00,,,-99.99,,2013-11-30 07:52:00,